Time;durP1;ratioP1;P1;durP2;ratioP2;P2;SDS_P1;SDS_P2;PMS_P1;PMS_P2;Temp;Humidity;BMP_temperature;BMP_pressure;BME280_temperature;BME280_humidity;BME280_pressure;Samples;Min_cycle;Max_cycle;Signal;HPM_P1;HPM_P2
2022/07/06 00:00:18;;;;;;;;;;;;;;;-144.99;96.83;52256.50;5047554;28;19924;-61
2022/07/06 00:02:44;;;;;;;;;;;;;;;-144.99;96.60;52280.97;5051370;28;19925;-61
2022/07/06 00:05:10;;;;;;;;;;;;;;;-144.99;97.05;52289.13;5051574;28;19925;-60
2022/07/06 00:07:37;;;;;;;;;;;;;;;-144.99;96.52;52285.03;5050899;28;19962;-60
2022/07/06 00:10:04;;;;;;;;;;;;;;;-144.99;96.08;52250.38;5047638;28;20287;-60
2022/07/06 00:12:31;;;;;;;;;;;;;;;-144.99;96.26;52285.03;5050327;28;20016;-60
2022/07/06 00:14:58;;;;;;;;;;;;;;;-144.99;95.49;52272.81;5051034;28;19927;-60
2022/07/06 00:17:24;;;;;;;;;;;;;;;-144.99;95.17;52309.50;5051189;28;19931;-60
2022/07/06 00:19:51;;;;;;;;;;;;;;;-144.99;94.81;52287.06;5049570;28;19924;-60
2022/07/06 00:22:17;;;;;;;;;;;;;;;-144.99;94.50;52268.72;5047588;28;20043;-62
2022/07/06 00:24:44;;;;;;;;;;;;;;;-144.99;94.15;52276.88;5050823;28;19975;-62
2022/07/06 00:27:10;;;;;;;;;;;;;;;-144.99;94.22;52252.44;5050016;28;20027;-62
2022/07/06 00:29:43;;;;;;;;;;;;;;;-144.99;93.79;52266.69;5050599;28;19956;-62
2022/07/06 00:32:09;;;;;;;;;;;;;;;-144.99;93.56;52242.22;5044633;28;19921;-62
2022/07/06 00:34:36;;;;;;;;;;;;;;;-144.99;93.36;52268.72;5050329;28;19920;-63
2022/07/06 00:37:02;;;;;;;;;;;;;;;-144.99;93.67;52301.34;5050418;28;19921;-64
2022/07/06 00:39:29;;;;;;;;;;;;;;;-144.99;93.15;52283.00;5050307;28;20003;-64
2022/07/06 00:41:56;;;;;;;;;;;;;;;-144.99;92.89;52272.81;5045326;28;20397;-65
2022/07/06 00:44:22;;;;;;;;;;;;;;;-144.99;92.82;52248.34;5049948;28;19943;-65
2022/07/06 00:46:50;;;;;;;;;;;;;;;-144.99;92.88;52289.13;5050659;28;19978;-64
2022/07/06 00:51:57;;;;;;;;;;;;;;;-144.99;93.25;52256.50;5046283;28;20016;-65
2022/07/06 00:54:24;;;;;;;;;;;;;;;-144.99;93.51;52252.44;5051120;28;19920;-62
2022/07/06 00:56:51;;;;;;;;;;;;;;;-144.99;93.13;52283.00;5050635;28;20015;-63
2022/07/06 00:59:17;;;;;;;;;;;;;;;-144.99;93.00;52285.03;5048713;28;20007;-63
2022/07/06 01:01:43;;;;;;;;;;;;;;;-144.99;92.61;52256.50;5050358;28;20002;-63
2022/07/06 01:04:11;;;;;;;;;;;;;;;-144.99;92.93;52280.97;5050286;28;19948;-63
2022/07/06 01:06:39;;;;;;;;;;;;;;;-144.99;92.91;52297.25;5049605;28;20407;-62
2022/07/06 01:09:06;;;;;;;;;;;;;;;-144.99;92.45;52260.56;5047385;28;20165;-62
2022/07/06 01:11:32;;;;;;;;;;;;;;;-144.99;92.56;52240.19;5046741;28;19925;-63
2022/07/06 01:14:00;;;;;;;;;;;;;;;-144.99;92.42;52305.41;5049979;28;19921;-62
2022/07/06 01:16:27;;;;;;;;;;;;;;;-144.99;92.23;52256.50;5046495;28;19950;-62
2022/07/06 01:18:53;;;;;;;;;;;;;;;-144.99;91.74;52256.50;5042823;28;20011;-62
2022/07/06 01:21:21;;;;;;;;;;;;;;;-144.99;91.32;52313.56;5049352;28;20011;-64
2022/07/06 01:23:48;;;;;;;;;;;;;;;-144.99;90.69;52256.50;5050148;28;19931;-64
2022/07/06 01:26:17;;;;;;;;;;;;;;;-144.99;90.38;52268.72;5049671;28;19931;-65
2022/07/06 01:28:44;;;;;;;;;;;;;;;-144.99;90.16;52260.56;5047947;28;19987;-65
2022/07/06 01:31:18;;;;;;;;;;;;;;;-144.99;89.91;52283.00;5050128;28;20016;-65
2022/07/06 01:33:45;;;;;;;;;;;;;;;-144.99;89.71;52293.19;5050055;28;20414;-65
2022/07/06 01:36:11;;;;;;;;;;;;;;;-144.99;89.90;52280.97;5050216;28;19921;-63
2022/07/06 01:38:45;;;;;;;;;;;;;;;-144.99;89.41;52264.66;5049505;28;20377;-63
2022/07/06 01:41:11;;;;;;;;;;;;;;;-144.99;89.79;52280.97;5044310;28;20036;-64
2022/07/06 01:43:38;;;;;;;;;;;;;;;-144.99;89.41;52268.72;5043836;28;19964;-63
2022/07/06 01:46:04;;;;;;;;;;;;;;;-144.99;89.45;52305.41;5050143;28;20008;-63
2022/07/06 01:48:31;;;;;;;;;;;;;;;-144.99;89.66;52285.03;5045276;28;19975;-64
2022/07/06 01:50:57;;;;;;;;;;;;;;;-144.99;89.76;52244.28;5041227;28;20328;-63
2022/07/06 01:53:24;;;;;;;;;;;;;;;-144.99;90.04;52260.56;5039904;28;20016;-62
2022/07/06 01:55:51;;;;;;;;;;;;;;;-144.99;91.16;52301.34;5048812;28;20023;-62
2022/07/06 01:58:18;;;;;;;;;;;;;;;-144.99;92.30;52264.66;5043306;28;20024;-62
2022/07/06 02:00:44;;;;;;;;;;;;;;;-144.99;93.50;52313.56;5045854;28;19959;-62
2022/07/06 02:03:11;;;;;;;;;;;;;;;-144.99;95.84;52297.25;5049131;28;20332;-62
2022/07/06 02:05:37;;;;;;;;;;;;;;;-144.99;96.16;52293.19;5049177;28;20494;-62
2022/07/06 02:08:04;;;;;;;;;;;;;;;-144.99;96.12;52303.38;5048608;28;20461;-62
2022/07/06 02:10:30;;;;;;;;;;;;;;;-144.99;96.21;52297.25;5041330;28;20308;-62
2022/07/06 02:12:58;;;;;;;;;;;;;;;-144.99;96.29;52295.22;5048583;28;19967;-62
2022/07/06 02:15:25;;;;;;;;;;;;;;;-144.99;96.95;52293.19;5048986;28;20374;-62
2022/07/06 02:17:51;;;;;;;;;;;;;;;-144.99;96.78;52280.97;5048915;28;20289;-61
2022/07/06 02:20:17;;;;;;;;;;;;;;;-144.99;99.10;52325.81;5047403;28;19943;-60
2022/07/06 02:22:44;;;;;;;;;;;;;;;-144.99;100.00;52331.91;5048043;28;19968;-60
2022/07/06 02:25:10;;;;;;;;;;;;;;;-144.99;100.00;52278.91;5048880;28;20266;-61
2022/07/06 02:27:37;;;;;;;;;;;;;;;-144.99;100.00;52301.34;5048239;28;19956;-60
2022/07/06 02:30:06;;;;;;;;;;;;;;;-144.99;100.00;52333.94;5045900;28;20171;-61
2022/07/06 02:32:32;;;;;;;;;;;;;;;-144.99;100.00;52285.03;5048445;28;19952;-59
2022/07/06 02:34:59;;;;;;;;;;;;;;;-144.99;100.00;52272.81;5049531;28;19921;-60
2022/07/06 02:37:25;;;;;;;;;;;;;;;-144.99;100.00;52305.41;5048598;28;19925;-56
2022/07/06 02:39:52;;;;;;;;;;;;;;;-144.99;100.00;52289.13;5049460;28;19964;-57
2022/07/06 02:42:18;;;;;;;;;;;;;;;-144.99;100.00;52272.81;5046846;28;20011;-56
2022/07/06 02:44:44;;;;;;;;;;;;;;;-144.99;100.00;52317.66;5049062;28;20011;-56
2022/07/06 02:47:12;;;;;;;;;;;;;;;-144.99;100.00;52321.72;5049093;28;20045;-57
2022/07/06 02:49:39;;;;;;;;;;;;;;;-144.99;100.00;52272.81;5048860;28;19921;-56
2022/07/06 02:52:05;;;;;;;;;;;;;;;-144.99;100.00;52309.50;5042930;28;19959;-56
2022/07/06 02:54:32;;;;;;;;;;;;;;;-144.99;100.00;52272.81;5040940;28;20355;-58
2022/07/06 02:56:58;;;;;;;;;;;;;;;-144.99;100.00;52285.03;5048002;28;20349;-57
2022/07/06 02:59:25;;;;;;;;;;;;;;;-144.99;100.00;52295.22;5045784;28;20361;-57
2022/07/06 03:01:51;;;;;;;;;;;;;;;-144.99;100.00;52252.44;5048179;28;19960;-58
2022/07/06 03:04:19;;;;;;;;;;;;;;;-144.99;100.00;52293.19;5048397;28;19920;-58
2022/07/06 03:06:45;;;;;;;;;;;;;;;-144.99;100.00;52301.34;5049992;28;19931;-58
2022/07/06 03:09:12;;;;;;;;;;;;;;;-144.99;100.00;52299.31;5048630;28;20031;-57
2022/07/06 03:11:38;;;;;;;;;;;;;;;-144.99;100.00;52266.69;5051468;28;19921;-57
2022/07/06 03:14:05;;;;;;;;;;;;;;;-144.99;100.00;52283.00;5051457;28;20292;-59
2022/07/06 03:16:31;;;;;;;;;;;;;;;-144.99;100.00;52313.56;5051919;28;20012;-57
2022/07/06 03:18:58;;;;;;;;;;;;;;;-144.99;100.00;52268.72;5051918;28;20502;-57
2022/07/06 03:21:26;;;;;;;;;;;;;;;-144.99;100.00;52280.97;5046133;28;20164;-58
2022/07/06 03:23:53;;;;;;;;;;;;;;;-144.99;100.00;52287.06;5052016;28;19921;-58
2022/07/06 03:26:19;;;;;;;;;;;;;;;-144.99;100.00;52264.66;5051243;28;20412;-57
2022/07/06 03:28:45;;;;;;;;;;;;;;;-144.99;100.00;52260.56;5051694;28;19956;-57
2022/07/06 03:31:12;;;;;;;;;;;;;;;-144.99;100.00;52287.06;5047030;28;20049;-58
2022/07/06 03:33:39;;;;;;;;;;;;;;;-144.99;100.00;52321.72;5051228;28;19960;-60
2022/07/06 03:36:05;;;;;;;;;;;;;;;-144.99;100.00;52317.66;5050452;28;19967;-61
2022/07/06 03:38:33;;;;;;;;;;;;;;;-144.99;100.00;52285.03;5044404;28;19921;-61
2022/07/06 03:41:00;;;;;;;;;;;;;;;-144.99;100.00;52297.25;5051568;28;19975;-61
2022/07/06 03:43:26;;;;;;;;;;;;;;;-144.99;100.00;52289.13;5051081;28;20381;-61
2022/07/06 03:45:53;;;;;;;;;;;;;;;-144.99;100.00;52276.88;5051458;28;20004;-61
2022/07/06 03:48:19;;;;;;;;;;;;;;;-144.99;100.00;52285.03;5044892;28;19920;-61
2022/07/06 03:50:46;;;;;;;;;;;;;;;-144.99;100.00;52317.66;5051540;28;19959;-61
2022/07/06 03:53:12;;;;;;;;;;;;;;;-144.99;100.00;52276.88;5050946;28;20007;-61
2022/07/06 03:55:40;;;;;;;;;;;;;;;-144.99;100.00;52303.38;5051080;28;19921;-61
2022/07/06 03:58:07;;;;;;;;;;;;;;;-144.99;100.00;52301.34;5048216;28;19944;-61
2022/07/06 04:00:34;;;;;;;;;;;;;;;-144.99;100.00;52285.03;5051399;28;19979;-61
2022/07/06 04:03:01;;;;;;;;;;;;;;;-144.99;100.00;52301.34;5050736;28;19931;-61
2022/07/06 04:05:28;;;;;;;;;;;;;;;-144.99;100.00;52309.50;5050347;28;20009;-61
2022/07/06 04:07:54;;;;;;;;;;;;;;;-144.99;100.00;52313.56;5042931;28;20028;-61
2022/07/06 04:10:20;;;;;;;;;;;;;;;-144.99;100.00;52260.56;5050084;28;20457;-60
2022/07/06 04:12:48;;;;;;;;;;;;;;;-144.99;100.00;52293.19;5050587;28;19924;-61
2022/07/06 04:15:15;;;;;;;;;;;;;;;-144.99;100.00;52305.41;5051021;28;19931;-63
2022/07/06 04:17:53;;;;;;;;;;;;;;;-144.99;100.00;52254.47;5048922;28;19925;-62
2022/07/06 04:20:20;;;;;;;;;;;;;;;-144.99;100.00;52297.25;5051777;28;20318;-62
2022/07/06 04:22:46;;;;;;;;;;;;;;;-144.99;100.00;52276.88;5050698;28;19964;-62
2022/07/06 04:25:13;;;;;;;;;;;;;;;-144.99;100.00;52342.09;5050828;28;20392;-62
2022/07/06 04:27:40;;;;;;;;;;;;;;;-144.99;100.00;52250.38;5050309;28;20503;-62
2022/07/06 04:30:09;;;;;;;;;;;;;;;-144.99;100.00;52260.56;5048400;28;19920;-62
2022/07/06 04:32:36;;;;;;;;;;;;;;;-144.99;100.00;52297.25;5050596;28;19995;-62
2022/07/06 04:35:03;;;;;;;;;;;;;;;-144.99;100.00;52272.81;5050884;28;19959;-62
2022/07/06 04:37:29;;;;;;;;;;;;;;;-144.99;98.80;52346.19;5050398;28;20012;-62
2022/07/06 04:39:56;;;;;;;;;;;;;;;-144.99;98.99;52315.59;5048776;28;20019;-62
2022/07/06 04:42:22;;;;;;;;;;;;;;;-144.99;98.39;52293.19;5049574;28;20032;-63
2022/07/06 04:44:48;;;;;;;;;;;;;;;-144.99;97.78;52291.16;5050660;28;19952;-62
2022/07/06 04:47:16;;;;;;;;;;;;;;;-144.99;96.96;52264.66;5050396;28;19936;-62
2022/07/06 04:49:43;;;;;;;;;;;;;;;-144.99;96.93;52297.25;5042375;28;20451;-67
2022/07/06 04:52:09;;;;;;;;;;;;;;;-144.99;96.36;52293.19;5050093;28;19932;-67
2022/07/06 04:54:36;;;;;;;;;;;;;;;-144.99;95.72;52297.25;5050490;28;19963;-67
2022/07/06 04:57:02;;;;;;;;;;;;;;;-144.99;95.18;52260.56;5045096;28;19956;-67
2022/07/06 04:59:29;;;;;;;;;;;;;;;-144.99;94.59;52309.50;5050059;28;19968;-66
2022/07/06 05:01:55;;;;;;;;;;;;;;;-144.99;94.27;52280.97;5050517;28;19925;-68
2022/07/06 05:04:24;;;;;;;;;;;;;;;-144.99;93.75;52268.72;4351366;28;10000716;-68
2022/07/06 05:06:50;;;;;;;;;;;;;;;-144.99;93.52;52252.44;5045182;28;19921;-68
2022/07/06 05:09:17;;;;;;;;;;;;;;;-144.99;93.78;52252.44;5037749;28;20035;-68
2022/07/06 05:11:44;;;;;;;;;;;;;;;-144.99;93.43;52289.13;5048061;28;20041;-68
2022/07/06 05:14:10;;;;;;;;;;;;;;;-144.99;92.75;52285.03;5047839;28;19921;-68
2022/07/06 05:16:36;;;;;;;;;;;;;;;-144.99;93.11;52278.91;5048000;28;19964;-67
2022/07/06 05:19:03;;;;;;;;;;;;;;;-144.99;92.84;52325.81;5042682;28;19931;-68
2022/07/06 05:21:31;;;;;;;;;;;;;;;-144.99;92.53;52301.34;5046954;28;19925;-68
2022/07/06 05:23:57;;;;;;;;;;;;;;;-144.99;92.04;52285.03;5051748;28;20003;-68
2022/07/06 05:26:24;;;;;;;;;;;;;;;-144.99;90.93;52260.56;5043053;28;20280;-68
2022/07/06 05:28:50;;;;;;;;;;;;;;;-144.99;90.41;52285.03;5039757;28;19929;-68
2022/07/06 05:31:17;;;;;;;;;;;;;;;-144.99;90.65;52221.84;5042708;28;19920;-69
2022/07/06 05:33:43;;;;;;;;;;;;;;;-144.99;90.81;52272.81;5044683;28;20005;-68
2022/07/06 05:36:10;;;;;;;;;;;;;;;-144.99;92.03;52270.78;5040387;28;20392;-69
2022/07/06 05:38:38;;;;;;;;;;;;;;;-144.99;95.27;52272.81;5041429;28;20006;-68
2022/07/06 05:41:04;;;;;;;;;;;;;;;-144.99;96.62;52276.88;5049571;28;20023;-69
2022/07/06 05:43:30;;;;;;;;;;;;;;;-144.99;97.09;52268.72;5058335;28;19976;-68
2022/07/06 05:45:57;;;;;;;;;;;;;;;-144.99;98.56;52285.03;5056526;28;19974;-68
2022/07/06 05:51:07;;;;;;;;;;;;;;;-144.99;100.00;52289.13;5056399;28;19954;-69
2022/07/06 05:53:34;;;;;;;;;;;;;;;-144.99;100.00;52256.50;5058683;28;19920;-68
2022/07/06 05:56:01;;;;;;;;;;;;;;;-144.99;100.00;52295.22;5057865;28;19921;-68
2022/07/06 05:58:28;;;;;;;;;;;;;;;-144.99;100.00;52270.78;5048374;28;19956;-68
2022/07/06 06:00:54;;;;;;;;;;;;;;;-144.99;100.00;52280.97;5055476;28;19920;-69
2022/07/06 06:03:21;;;;;;;;;;;;;;;-144.99;100.00;52289.13;5058837;28;20389;-69
2022/07/06 06:05:47;;;;;;;;;;;;;;;-144.99;100.00;52262.63;5055673;28;19928;-70
2022/07/06 06:08:14;;;;;;;;;;;;;;;-144.99;100.00;52301.34;5053251;28;19925;-68
2022/07/06 06:10:40;;;;;;;;;;;;;;;-144.99;100.00;52276.88;5057345;28;20012;-69
2022/07/06 06:13:08;;;;;;;;;;;;;;;-144.99;100.00;52272.81;5055583;28;20003;-68
2022/07/06 06:15:35;;;;;;;;;;;;;;;-144.99;100.00;52297.25;5054431;28;20000;-69
2022/07/06 06:18:03;;;;;;;;;;;;;;;-144.99;100.00;52252.44;5046675;28;19946;-69
2022/07/06 06:20:30;;;;;;;;;;;;;;;-144.99;100.00;52260.56;5048942;28;19921;-69
2022/07/06 06:22:57;;;;;;;;;;;;;;;-144.99;100.00;52256.50;5049499;28;19967;-68
2022/07/06 06:25:28;;;;;;;;;;;;;;;-144.99;100.00;52272.81;5049281;28;19955;-69
2022/07/06 06:27:55;;;;;;;;;;;;;;;-144.99;100.00;52244.28;5047050;28;20032;-69
2022/07/06 06:30:23;;;;;;;;;;;;;;;-144.99;100.00;52244.28;5045217;28;20297;-69
2022/07/06 06:32:49;;;;;;;;;;;;;;;-144.99;100.00;52236.13;5046000;28;20350;-69
2022/07/06 06:35:16;;;;;;;;;;;;;;;-144.99;100.00;52264.66;5046626;28;19925;-69
2022/07/06 06:37:42;;;;;;;;;;;;;;;-144.99;100.00;52219.81;5045312;28;19921;-69
2022/07/06 06:40:09;;;;;;;;;;;;;;;-144.99;100.00;52268.72;5044963;28;20392;-67
2022/07/06 06:42:36;;;;;;;;;;;;;;;-144.99;100.00;52278.91;5049871;28;19987;-69
2022/07/06 06:45:03;;;;;;;;;;;;;;;-144.99;100.00;52219.81;5051091;28;20016;-70
2022/07/06 06:47:31;;;;;;;;;;;;;;;-144.99;100.00;52264.66;5050260;28;19974;-68
2022/07/06 06:49:57;;;;;;;;;;;;;;;-144.99;100.00;52276.88;5048218;28;20368;-68
2022/07/06 06:52:24;;;;;;;;;;;;;;;-144.99;100.00;52260.56;5049382;28;20019;-70
2022/07/06 06:54:50;;;;;;;;;;;;;;;-144.99;100.00;52264.66;5050764;28;19928;-69
2022/07/06 06:57:17;;;;;;;;;;;;;;;-144.99;100.00;52215.75;5053300;28;19988;-69
2022/07/06 06:59:44;;;;;;;;;;;;;;;-144.99;100.00;52240.19;4703257;28;10000212;-70
2022/07/06 07:02:10;;;;;;;;;;;;;;;-144.99;100.00;52248.34;5049078;28;19936;-69
2022/07/06 07:04:38;;;;;;;;;;;;;;;-144.99;99.29;52272.81;5049724;28;20323;-69
2022/07/06 07:07:05;;;;;;;;;;;;;;;-144.99;97.99;52285.03;5049338;28;19920;-69
2022/07/06 07:09:31;;;;;;;;;;;;;;;-144.99;94.70;52250.38;5041620;28;19924;-68
2022/07/06 07:11:58;;;;;;;;;;;;;;;-144.99;93.84;52293.19;5049186;28;19924;-69
2022/07/06 07:14:25;;;;;;;;;;;;;;;-144.99;93.88;52248.34;5050258;28;19925;-69
2022/07/06 07:16:51;;;;;;;;;;;;;;;-144.99;94.90;52309.50;5049430;28;20350;-69
2022/07/06 07:19:18;;;;;;;;;;;;;;;-144.99;96.53;52285.03;5048914;28;19936;-69
2022/07/06 07:21:46;;;;;;;;;;;;;;;-144.99;96.00;52268.72;5046216;28;20083;-69
2022/07/06 07:24:12;;;;;;;;;;;;;;;-144.99;96.05;52266.69;5048984;28;20378;-69
2022/07/06 07:26:39;;;;;;;;;;;;;;;-144.99;97.64;52268.72;5049694;28;20494;-68
2022/07/06 07:29:05;;;;;;;;;;;;;;;-144.99;96.70;52248.34;5050781;28;19963;-68
2022/07/06 07:31:32;;;;;;;;;;;;;;;-144.99;94.89;52217.78;5042580;28;20624;-68
2022/07/06 07:33:58;;;;;;;;;;;;;;;-144.99;93.82;52256.50;5051398;28;19943;-68
2022/07/06 07:36:25;;;;;;;;;;;;;;;-144.99;93.52;52248.34;5049060;28;19932;-69
2022/07/06 07:38:53;;;;;;;;;;;;;;;-144.99;92.61;52227.97;5050122;28;19935;-69
2022/07/06 07:41:19;;;;;;;;;;;;;;;-144.99;90.72;52260.56;5048322;28;20101;-69
2022/07/06 07:43:46;;;;;;;;;;;;;;;-144.99;90.44;52238.16;5049409;28;20310;-69
2022/07/06 07:46:12;;;;;;;;;;;;;;;-144.99;90.55;52258.53;5049027;28;20017;-69
2022/07/06 07:48:39;;;;;;;;;;;;;;;-144.99;90.02;52256.50;5048986;28;20538;-68
2022/07/06 07:51:05;;;;;;;;;;;;;;;-144.99;89.60;52240.19;5045226;28;20109;-69
2022/07/06 07:53:31;;;;;;;;;;;;;;;-144.99;91.81;52227.97;5047563;28;20050;-69
2022/07/06 07:55:59;;;;;;;;;;;;;;;-144.99;91.65;52244.28;5049020;28;20354;-68
2022/07/06 07:58:26;;;;;;;;;;;;;;;-144.99;92.63;52268.72;5034180;28;19929;-69
2022/07/06 08:00:53;;;;;;;;;;;;;;;-144.99;91.98;52268.72;5036443;28;19925;-68
2022/07/06 08:03:19;;;;;;;;;;;;;;;-144.99;92.34;52250.38;5049050;28;19959;-68
2022/07/06 08:05:47;;;;;;;;;;;;;;;-144.99;93.76;52260.56;5048875;28;20031;-68
2022/07/06 08:08:14;;;;;;;;;;;;;;;-144.99;95.77;52252.44;5048005;28;20005;-69
2022/07/06 08:10:40;;;;;;;;;;;;;;;-144.99;95.61;52256.50;5048874;28;20279;-68
2022/07/06 08:13:08;;;;;;;;;;;;;;;-144.99;94.92;52260.56;5046667;28;20079;-69
2022/07/06 08:15:35;;;;;;;;;;;;;;;-144.99;93.96;52232.03;5048446;28;20410;-68
2022/07/06 08:18:01;;;;;;;;;;;;;;;-144.99;91.98;52227.97;5048825;28;19935;-68
2022/07/06 08:20:28;;;;;;;;;;;;;;;-144.99;91.73;52232.03;5048768;28;20000;-69
2022/07/06 08:22:54;;;;;;;;;;;;;;;-144.99;90.86;52217.78;5040541;28;20019;-68
2022/07/06 08:25:23;;;;;;;;;;;;;;;-144.99;88.39;52209.63;5048602;28;20790;-68
2022/07/06 08:27:49;;;;;;;;;;;;;;;-144.99;86.69;52187.19;5051791;28;19925;-68
2022/07/06 08:30:17;;;;;;;;;;;;;;;-144.99;84.70;52230.00;5048420;28;19971;-68
2022/07/06 08:32:44;;;;;;;;;;;;;;;-144.99;80.41;52191.28;5047140;28;19921;-69
2022/07/06 08:35:11;;;;;;;;;;;;;;;-144.99;78.17;52207.59;5049580;28;20015;-69
2022/07/06 08:37:37;;;;;;;;;;;;;;;-144.99;75.81;52191.28;5049771;28;20011;-69
2022/07/06 08:40:04;;;;;;;;;;;;;;;-144.99;75.28;52187.19;5045070;28;20011;-69
2022/07/06 08:42:32;;;;;;;;;;;;;;;-144.99;73.68;52219.81;5045695;28;19942;-69
2022/07/06 08:45:00;;;;;;;;;;;;;;;-144.99;72.03;52166.81;5048300;28;19921;-69
2022/07/06 08:47:28;;;;;;;;;;;;;;;-144.99;68.43;52215.75;5048245;28;19924;-69
2022/07/06 08:49:55;;;;;;;;;;;;;;;-144.99;67.32;52174.97;5047404;28;19927;-69
2022/07/06 08:52:23;;;;;;;;;;;;;;;-144.99;66.73;52183.13;5042890;28;19936;-69
2022/07/06 08:54:50;;;;;;;;;;;;;;;-144.99;64.28;52187.19;5047865;28;19951;-69
2022/07/06 08:57:16;;;;;;;;;;;;;;;-144.99;62.01;52126.06;5048021;28;19982;-69
2022/07/06 08:59:43;;;;;;;;;;;;;;;-144.99;59.24;52150.53;5043271;28;20283;-69
2022/07/06 09:02:10;;;;;;;;;;;;;;;-144.99;58.63;52199.44;5042999;28;19959;-69
2022/07/06 09:04:38;;;;;;;;;;;;;;;-144.99;56.59;52154.59;5047335;28;20042;-70
2022/07/06 09:07:05;;;;;;;;;;;;;;;-144.99;56.43;52166.81;5047703;28;19925;-69
2022/07/06 09:09:32;;;;;;;;;;;;;;;-144.99;55.44;52130.13;5047253;28;19925;-69
2022/07/06 09:11:58;;;;;;;;;;;;;;;-144.99;54.84;52150.53;5043965;28;19924;-69
2022/07/06 09:14:25;;;;;;;;;;;;;;;-144.99;53.28;52146.44;5050092;28;19928;-69
2022/07/06 09:16:53;;;;;;;;;;;;;;;-144.99;53.30;52128.09;5049784;28;19979;-69
2022/07/06 09:19:20;;;;;;;;;;;;;;;-144.99;52.55;52126.06;5048634;28;20066;-70
2022/07/06 09:21:49;;;;;;;;;;;;;;;-144.99;52.42;52107.72;5039305;28;19964;-68
2022/07/06 09:24:15;;;;;;;;;;;;;;;-144.99;52.24;52093.44;5045816;28;19975;-69
2022/07/06 09:26:42;;;;;;;;;;;;;;;-144.99;51.40;52121.97;5047142;28;20011;-69
2022/07/06 09:29:08;;;;;;;;;;;;;;;-144.99;50.87;52117.91;5046735;28;19932;-70
2022/07/06 09:31:34;;;;;;;;;;;;;;;-144.99;50.91;52117.91;5047039;28;19956;-70
2022/07/06 09:34:05;;;;;;;;;;;;;;;-144.99;50.96;52146.44;5044018;28;19920;-69
2022/07/06 09:36:39;;;;;;;;;;;;;;;-144.99;50.86;52174.97;5047505;28;19943;-69
2022/07/06 09:39:20;;;;;;;;;;;;;;;-144.99;51.98;52146.44;5047344;28;19931;-69
2022/07/06 09:41:49;;;;;;;;;;;;;;;-144.99;52.90;52230.00;5039203;28;19928;-69
2022/07/06 09:44:20;;;;;;;;;;;;;;;-144.99;54.45;52207.59;5045152;28;20394;-69
2022/07/06 09:46:47;;;;;;;;;;;;;;;-144.99;54.96;52203.50;5047755;28;19931;-69
2022/07/06 09:49:13;;;;;;;;;;;;;;;-144.99;55.71;52219.81;5046955;28;19925;-69
2022/07/06 09:51:40;;;;;;;;;;;;;;;-144.99;57.40;52268.72;5043618;28;19920;-69
2022/07/06 09:54:07;;;;;;;;;;;;;;;-144.99;58.93;52242.22;5046912;28;20328;-70
2022/07/06 09:56:38;;;;;;;;;;;;;;;-144.99;60.75;52268.72;5046940;28;19924;-69
2022/07/06 09:59:12;;;;;;;;;;;;;;;-144.99;62.36;52260.56;5040147;28;20177;-69
2022/07/06 10:01:40;;;;;;;;;;;;;;;-144.99;63.86;52260.56;5040914;28;19967;-69
2022/07/06 10:04:06;;;;;;;;;;;;;;;-144.99;64.79;52260.56;5046889;28;19998;-69
2022/07/06 10:06:33;;;;;;;;;;;;;;;-144.99;66.12;52285.03;5047318;28;19952;-68
2022/07/06 10:09:00;;;;;;;;;;;;;;;-144.99;66.44;52264.66;5047202;28;20164;-70
2022/07/06 10:11:28;;;;;;;;;;;;;;;-144.99;66.64;52248.34;5040995;28;19925;-69
2022/07/06 10:13:56;;;;;;;;;;;;;;;-144.99;67.13;52250.38;5047551;28;20019;-70
2022/07/06 10:16:24;;;;;;;;;;;;;;;-144.99;67.64;52268.72;5045346;28;19925;-70
2022/07/06 10:18:53;;;;;;;;;;;;;;;-144.99;68.25;52234.09;5045887;28;19959;-69
2022/07/06 10:21:20;;;;;;;;;;;;;;;-144.99;68.60;52219.81;5043684;28;19929;-70
2022/07/06 10:23:46;;;;;;;;;;;;;;;-144.99;68.11;52217.78;5045877;28;20249;-70
2022/07/06 10:26:13;;;;;;;;;;;;;;;-144.99;66.28;52189.25;5045701;28;19960;-70
2022/07/06 10:28:40;;;;;;;;;;;;;;;-144.99;65.40;52244.28;5045401;28;19925;-69
2022/07/06 10:31:07;;;;;;;;;;;;;;;-144.99;63.82;52203.50;5040783;28;20451;-70
2022/07/06 10:33:35;;;;;;;;;;;;;;;-144.99;62.51;52219.81;5039639;28;20021;-70
2022/07/06 10:36:02;;;;;;;;;;;;;;;-144.99;62.71;52174.97;5045123;28;20435;-70
2022/07/06 10:38:32;;;;;;;;;;;;;;;-144.99;62.12;52183.13;5045210;28;19925;-69
2022/07/06 10:41:05;;;;;;;;;;;;;;;-144.99;59.61;52085.31;5045174;28;19956;-70
2022/07/06 10:43:35;;;;;;;;;;;;;;;-144.99;58.60;52109.75;5035697;28;20623;-69
2022/07/06 10:46:11;;;;;;;;;;;;;;;-144.99;55.38;52109.75;5045880;28;20386;-69
2022/07/06 10:48:40;;;;;;;;;;;;;;;-144.99;54.83;52105.69;5045357;28;19931;-69
2022/07/06 10:51:08;;;;;;;;;;;;;;;-144.99;53.00;52089.38;5037072;28;20386;-69
2022/07/06 10:53:35;;;;;;;;;;;;;;;-144.99;52.14;52036.38;5045017;28;19959;-70
2022/07/06 10:56:04;;;;;;;;;;;;;;;-144.99;51.04;52105.69;5045081;28;19920;-70
2022/07/06 10:58:41;;;;;;;;;;;;;;;-144.99;50.59;52154.59;5045411;28;19924;-69
2022/07/06 11:01:08;;;;;;;;;;;;;;;-144.99;52.70;52146.44;5037562;28;19921;-70
2022/07/06 11:03:35;;;;;;;;;;;;;;;-144.99;53.18;52179.06;5045439;28;19924;-69
2022/07/06 11:06:06;;;;;;;;;;;;;;;-144.99;52.48;52195.34;5045154;28;19964;-69
2022/07/06 11:08:52;;;;;;;;;;;;;;;-144.99;53.24;52191.28;5043593;28;20030;-69
2022/07/06 11:11:19;;;;;;;;;;;;;;;-144.99;51.97;52170.91;5034106;28;19975;-69
2022/07/06 11:13:57;;;;;;;;;;;;;;;-144.99;50.92;52168.84;5044625;28;19924;-69
2022/07/06 11:16:25;;;;;;;;;;;;;;;-144.99;51.12;52170.91;5044857;28;19986;-70
2022/07/06 11:19:00;;;;;;;;;;;;;;;-144.99;50.75;52134.22;5045060;28;20000;-69
2022/07/06 11:21:34;;;;;;;;;;;;;;;-144.99;49.62;52105.69;5038602;28;19920;-70
2022/07/06 11:24:01;;;;;;;;;;;;;;;-144.99;47.77;52130.13;5045019;28;19943;-69
2022/07/06 11:26:28;;;;;;;;;;;;;;;-144.99;46.01;52146.44;5044537;28;19924;-69
2022/07/06 11:28:55;;;;;;;;;;;;;;;-144.99;46.52;52064.91;5048156;28;19929;-69
2022/07/06 11:31:22;;;;;;;;;;;;;;;-144.99;43.97;52064.91;5044674;28;19956;-70
2022/07/06 11:33:49;;;;;;;;;;;;;;;-144.99;44.64;52060.84;5048677;28;20027;-70
2022/07/06 11:36:16;;;;;;;;;;;;;;;-144.99;44.29;52085.31;5048095;28;19998;-69
2022/07/06 11:38:44;;;;;;;;;;;;;;;-144.99;43.62;52036.38;5048407;28;19982;-70
2022/07/06 11:41:13;;;;;;;;;;;;;;;-144.99;43.89;52093.44;5044738;28;19974;-69
2022/07/06 11:43:42;;;;;;;;;;;;;;;-144.99;43.65;52126.06;5042011;28;20010;-69
2022/07/06 11:46:18;;;;;;;;;;;;;;;-144.99;44.21;52081.22;5048254;28;19924;-69
2022/07/06 11:48:46;;;;;;;;;;;;;;;-144.99;43.79;52103.66;5044319;28;19997;-69
2022/07/06 11:51:14;;;;;;;;;;;;;;;-144.99;44.90;52077.16;5040529;28;20423;-70
2022/07/06 11:53:45;;;;;;;;;;;;;;;-144.99;43.78;52060.84;5048627;28;20374;-70
2022/07/06 11:56:11;;;;;;;;;;;;;;;-144.99;43.12;52044.53;5048396;28;19929;-69
2022/07/06 11:58:39;;;;;;;;;;;;;;;-144.99;42.95;52166.81;5048023;28;20132;-70
2022/07/06 12:01:07;;;;;;;;;;;;;;;-144.99;43.51;52117.91;5043868;28;19963;-69
2022/07/06 12:03:34;;;;;;;;;;;;;;;-144.99;44.13;52111.78;5047823;28;20294;-70
2022/07/06 12:06:01;;;;;;;;;;;;;;;-144.99;44.30;52097.53;5047775;28;20028;-69
2022/07/06 12:08:27;;;;;;;;;;;;;;;-144.99;41.97;52089.38;5044392;28;19960;-71
2022/07/06 12:10:56;;;;;;;;;;;;;;;-144.99;42.28;52066.97;5038980;28;20004;-69
2022/07/06 12:13:23;;;;;;;;;;;;;;;-144.99;42.05;52077.16;5046965;28;20036;-69
2022/07/06 12:15:49;;;;;;;;;;;;;;;-144.99;42.18;52109.75;5048583;28;20334;-69
2022/07/06 12:18:16;;;;;;;;;;;;;;;-144.99;43.51;52183.13;5047964;28;19931;-72
2022/07/06 12:20:42;;;;;;;;;;;;;;;-144.99;44.57;52170.91;5042730;28;21151;-70
2022/07/06 12:23:09;;;;;;;;;;;;;;;-144.99;44.84;52134.22;5044964;28;20054;-70
2022/07/06 12:25:36;;;;;;;;;;;;;;;-144.99;45.01;52166.81;5045043;28;20182;-69
2022/07/06 12:28:04;;;;;;;;;;;;;;;-144.99;45.28;52166.81;5046575;28;19956;-69